Saint Elizabeth, Missouri
Current Conditions -  °F | °C
As of 6:15 PM on Monday 24 Nov 2014 (Local Time) from KAIZ Reporting Station
Overcast Overcast  
Wind Chill: 34°   Ceiling: 5000
Heat Index: 41°   Visibility: 10mi
Dew Point: 25°   Wind: 12mph
Humidity: 53%   Direction: 310°NW
Pressure: 29.93"   Gusts: 16mph
Location:  38.26°N, 92.27°W
Report Text: KAIZ 250015Z AUTO 31010G14KT 270V340 10SM OVC050 05/M04 A2993 RMK AO1
Loading
Personal Weather Stations






























Interactive Weather Map New forecast layout! Learn more

10-Day Weather Forecast

Advertisements
Track Severe Weather on mobile